sensor_id;sensor_type;location;lat;lon;timestamp;P1;durP1;ratioP1;P2;durP2;ratioP2
4389;SDS011;2209;48.982;8.406;2023-10-09T00:02:16;15.10;;;5.10;;
4389;SDS011;2209;48.982;8.406;2023-10-09T00:04:39;18.80;;;5.93;;
4389;SDS011;2209;48.982;8.406;2023-10-09T00:07:03;20.10;;;5.30;;
4389;SDS011;2209;48.982;8.406;2023-10-09T00:09:29;19.67;;;5.37;;
4389;SDS011;2209;48.982;8.406;2023-10-09T00:11:53;23.97;;;6.23;;
4389;SDS011;2209;48.982;8.406;2023-10-09T00:14:17;15.27;;;5.20;;
4389;SDS011;2209;48.982;8.406;2023-10-09T00:16:39;14.53;;;4.70;;
4389;SDS011;2209;48.982;8.406;2023-10-09T00:19:07;16.00;;;5.50;;
4389;SDS011;2209;48.982;8.406;2023-10-09T00:21:37;17.37;;;6.20;;
4389;SDS011;2209;48.982;8.406;2023-10-09T00:23:59;17.03;;;6.23;;
4389;SDS011;2209;48.982;8.406;2023-10-09T00:26:27;15.00;;;5.73;;
4389;SDS011;2209;48.982;8.406;2023-10-09T00:28:52;16.97;;;6.10;;
4389;SDS011;2209;48.982;8.406;2023-10-09T00:31:14;12.07;;;4.73;;
4389;SDS011;2209;48.982;8.406;2023-10-09T00:33:36;10.30;;;5.83;;
4389;SDS011;2209;48.982;8.406;2023-10-09T00:36:01;17.50;;;6.27;;
4389;SDS011;2209;48.982;8.406;2023-10-09T00:38:29;8.60;;;4.40;;
4389;SDS011;2209;48.982;8.406;2023-10-09T00:40:55;18.43;;;6.83;;
4389;SDS011;2209;48.982;8.406;2023-10-09T00:43:31;23.47;;;6.37;;
4389;SDS011;2209;48.982;8.406;2023-10-09T00:45:56;15.93;;;6.10;;
4389;SDS011;2209;48.982;8.406;2023-10-09T00:48:23;22.27;;;6.50;;
4389;SDS011;2209;48.982;8.406;2023-10-09T00:50:51;19.23;;;7.30;;
4389;SDS011;2209;48.982;8.406;2023-10-09T00:53:14;15.90;;;6.80;;
4389;SDS011;2209;48.982;8.406;2023-10-09T00:55:38;28.03;;;7.63;;
4389;SDS011;2209;48.982;8.406;2023-10-09T00:58:06;18.83;;;6.80;;
4389;SDS011;2209;48.982;8.406;2023-10-09T01:00:33;18.00;;;7.47;;
4389;SDS011;2209;48.982;8.406;2023-10-09T01:03:07;21.40;;;6.37;;
4389;SDS011;2209;48.982;8.406;2023-10-09T01:05:39;13.80;;;5.07;;
4389;SDS011;2209;48.982;8.406;2023-10-09T01:08:07;17.73;;;6.63;;
4389;SDS011;2209;48.982;8.406;2023-10-09T01:10:43;17.43;;;5.13;;
4389;SDS011;2209;48.982;8.406;2023-10-09T01:13:11;16.30;;;7.27;;
4389;SDS011;2209;48.982;8.406;2023-10-09T01:15:35;18.60;;;6.60;;
4389;SDS011;2209;48.982;8.406;2023-10-09T01:18:04;13.50;;;5.30;;
4389;SDS011;2209;48.982;8.406;2023-10-09T01:20:28;21.63;;;6.60;;
4389;SDS011;2209;48.982;8.406;2023-10-09T01:23:01;16.20;;;5.40;;
4389;SDS011;2209;48.982;8.406;2023-10-09T01:25:23;15.00;;;4.50;;
4389;SDS011;2209;48.982;8.406;2023-10-09T01:27:48;14.20;;;5.80;;
4389;SDS011;2209;48.982;8.406;2023-10-09T01:30:11;12.43;;;5.20;;
4389;SDS011;2209;48.982;8.406;2023-10-09T01:32:34;16.33;;;5.80;;
4389;SDS011;2209;48.982;8.406;2023-10-09T01:34:57;9.77;;;5.23;;
4389;SDS011;2209;48.982;8.406;2023-10-09T01:37:20;15.73;;;5.97;;
4389;SDS011;2209;48.982;8.406;2023-10-09T01:39:45;18.80;;;5.83;;
4389;SDS011;2209;48.982;8.406;2023-10-09T01:42:09;16.87;;;5.07;;
4389;SDS011;2209;48.982;8.406;2023-10-09T01:44:31;10.27;;;4.77;;
4389;SDS011;2209;48.982;8.406;2023-10-09T01:46:56;30.53;;;7.43;;
4389;SDS011;2209;48.982;8.406;2023-10-09T01:49:18;17.00;;;5.20;;
4389;SDS011;2209;48.982;8.406;2023-10-09T01:51:42;25.40;;;6.13;;
4389;SDS011;2209;48.982;8.406;2023-10-09T01:54:04;17.20;;;6.03;;
4389;SDS011;2209;48.982;8.406;2023-10-09T01:56:27;14.73;;;5.53;;
4389;SDS011;2209;48.982;8.406;2023-10-09T01:58:49;17.60;;;5.57;;
4389;SDS011;2209;48.982;8.406;2023-10-09T02:01:11;17.70;;;5.10;;
4389;SDS011;2209;48.982;8.406;2023-10-09T02:03:35;30.97;;;4.90;;
4389;SDS011;2209;48.982;8.406;2023-10-09T02:05:58;18.33;;;5.40;;
4389;SDS011;2209;48.982;8.406;2023-10-09T02:08:40;21.37;;;6.00;;
4389;SDS011;2209;48.982;8.406;2023-10-09T02:11:09;11.63;;;6.00;;
4389;SDS011;2209;48.982;8.406;2023-10-09T02:13:36;17.13;;;4.87;;
4389;SDS011;2209;48.982;8.406;2023-10-09T02:16:02;17.00;;;5.63;;
4389;SDS011;2209;48.982;8.406;2023-10-09T02:18:35;18.90;;;6.30;;
4389;SDS011;2209;48.982;8.406;2023-10-09T02:21:13;26.43;;;6.90;;
4389;SDS011;2209;48.982;8.406;2023-10-09T02:23:35;17.47;;;6.73;;
4389;SDS011;2209;48.982;8.406;2023-10-09T02:26:01;14.73;;;5.93;;
4389;SDS011;2209;48.982;8.406;2023-10-09T02:28:26;21.47;;;5.93;;
4389;SDS011;2209;48.982;8.406;2023-10-09T02:30:55;18.63;;;6.37;;
4389;SDS011;2209;48.982;8.406;2023-10-09T02:33:21;12.27;;;6.27;;
4389;SDS011;2209;48.982;8.406;2023-10-09T02:35:48;17.93;;;7.30;;
4389;SDS011;2209;48.982;8.406;2023-10-09T02:38:11;12.93;;;5.70;;
4389;SDS011;2209;48.982;8.406;2023-10-09T02:40:37;12.63;;;6.10;;
4389;SDS011;2209;48.982;8.406;2023-10-09T02:43:21;15.57;;;5.90;;
4389;SDS011;2209;48.982;8.406;2023-10-09T02:45:45;20.57;;;6.00;;
4389;SDS011;2209;48.982;8.406;2023-10-09T02:48:12;22.47;;;5.00;;
4389;SDS011;2209;48.982;8.406;2023-10-09T02:50:34;11.53;;;6.10;;
4389;SDS011;2209;48.982;8.406;2023-10-09T02:52:58;18.17;;;5.33;;
4389;SDS011;2209;48.982;8.406;2023-10-09T02:55:28;11.67;;;5.53;;
4389;SDS011;2209;48.982;8.406;2023-10-09T02:57:59;11.90;;;5.67;;
4389;SDS011;2209;48.982;8.406;2023-10-09T03:00:28;16.80;;;6.30;;
4389;SDS011;2209;48.982;8.406;2023-10-09T03:02:52;17.93;;;6.53;;
4389;SDS011;2209;48.982;8.406;2023-10-09T03:05:16;23.97;;;5.13;;
4389;SDS011;2209;48.982;8.406;2023-10-09T03:07:38;12.43;;;5.10;;
4389;SDS011;2209;48.982;8.406;2023-10-09T03:10:00;15.83;;;5.17;;
4389;SDS011;2209;48.982;8.406;2023-10-09T03:12:29;14.70;;;5.27;;
4389;SDS011;2209;48.982;8.406;2023-10-09T03:14:53;18.10;;;5.33;;
4389;SDS011;2209;48.982;8.406;2023-10-09T03:17:19;19.20;;;5.70;;
4389;SDS011;2209;48.982;8.406;2023-10-09T03:19:43;13.67;;;5.80;;
4389;SDS011;2209;48.982;8.406;2023-10-09T03:22:09;14.30;;;6.20;;
4389;SDS011;2209;48.982;8.406;2023-10-09T03:24:31;16.33;;;5.50;;
4389;SDS011;2209;48.982;8.406;2023-10-09T03:26:54;15.37;;;5.70;;
4389;SDS011;2209;48.982;8.406;2023-10-09T03:29:17;23.80;;;6.53;;
4389;SDS011;2209;48.982;8.406;2023-10-09T03:31:40;15.10;;;6.67;;
4389;SDS011;2209;48.982;8.406;2023-10-09T03:34:03;13.53;;;6.00;;
4389;SDS011;2209;48.982;8.406;2023-10-09T03:36:26;20.00;;;6.83;;
4389;SDS011;2209;48.982;8.406;2023-10-09T03:38:52;23.50;;;6.17;;
4389;SDS011;2209;48.982;8.406;2023-10-09T03:41:18;11.50;;;5.40;;
4389;SDS011;2209;48.982;8.406;2023-10-09T03:43:40;13.80;;;6.07;;
4389;SDS011;2209;48.982;8.406;2023-10-09T03:46:03;20.90;;;7.53;;
4389;SDS011;2209;48.982;8.406;2023-10-09T03:48:26;17.77;;;7.00;;
4389;SDS011;2209;48.982;8.406;2023-10-09T03:50:52;15.37;;;6.13;;
4389;SDS011;2209;48.982;8.406;2023-10-09T03:53:28;14.10;;;6.63;;
4389;SDS011;2209;48.982;8.406;2023-10-09T03:55:52;20.10;;;6.60;;
4389;SDS011;2209;48.982;8.406;2023-10-09T03:58:15;21.60;;;6.27;;
4389;SDS011;2209;48.982;8.406;2023-10-09T04:00:39;14.70;;;6.33;;
4389;SDS011;2209;48.982;8.406;2023-10-09T04:03:05;15.97;;;6.37;;
4389;SDS011;2209;48.982;8.406;2023-10-09T04:05:27;13.73;;;6.17;;
4389;SDS011;2209;48.982;8.406;2023-10-09T04:07:49;17.10;;;6.27;;
4389;SDS011;2209;48.982;8.406;2023-10-09T04:10:14;14.93;;;5.90;;
4389;SDS011;2209;48.982;8.406;2023-10-09T04:12:54;18.33;;;7.40;;
4389;SDS011;2209;48.982;8.406;2023-10-09T04:15:19;20.27;;;6.47;;
4389;SDS011;2209;48.982;8.406;2023-10-09T04:17:43;11.47;;;5.80;;
4389;SDS011;2209;48.982;8.406;2023-10-09T04:20:08;18.00;;;7.07;;
4389;SDS011;2209;48.982;8.406;2023-10-09T04:23:07;17.37;;;6.60;;
4389;SDS011;2209;48.982;8.406;2023-10-09T04:25:28;15.93;;;7.10;;
4389;SDS011;2209;48.982;8.406;2023-10-09T04:28:02;19.80;;;8.07;;
4389;SDS011;2209;48.982;8.406;2023-10-09T04:30:29;9.07;;;4.53;;
4389;SDS011;2209;48.982;8.406;2023-10-09T04:33:00;14.43;;;6.10;;
4389;SDS011;2209;48.982;8.406;2023-10-09T04:35:31;17.50;;;4.93;;
4389;SDS011;2209;48.982;8.406;2023-10-09T04:37:54;19.70;;;5.00;;
4389;SDS011;2209;48.982;8.406;2023-10-09T04:40:25;20.23;;;5.47;;
4389;SDS011;2209;48.982;8.406;2023-10-09T04:43:10;13.87;;;6.80;;
4389;SDS011;2209;48.982;8.406;2023-10-09T04:45:40;14.90;;;5.40;;
4389;SDS011;2209;48.982;8.406;2023-10-09T04:48:27;21.03;;;7.47;;
4389;SDS011;2209;48.982;8.406;2023-10-09T04:50:58;12.83;;;5.00;;
4389;SDS011;2209;48.982;8.406;2023-10-09T04:53:41;15.80;;;6.73;;
4389;SDS011;2209;48.982;8.406;2023-10-09T04:56:09;18.20;;;6.90;;
4389;SDS011;2209;48.982;8.406;2023-10-09T04:58:37;17.67;;;6.70;;
4389;SDS011;2209;48.982;8.406;2023-10-09T05:01:00;18.30;;;6.70;;
4389;SDS011;2209;48.982;8.406;2023-10-09T05:03:32;19.67;;;6.43;;
4389;SDS011;2209;48.982;8.406;2023-10-09T05:06:12;18.50;;;6.77;;
4389;SDS011;2209;48.982;8.406;2023-10-09T05:08:52;20.07;;;8.00;;
4389;SDS011;2209;48.982;8.406;2023-10-09T05:11:15;13.60;;;6.97;;
4389;SDS011;2209;48.982;8.406;2023-10-09T05:13:56;17.43;;;6.80;;
4389;SDS011;2209;48.982;8.406;2023-10-09T05:16:33;15.37;;;6.67;;
4389;SDS011;2209;48.982;8.406;2023-10-09T05:18:55;13.47;;;6.27;;
4389;SDS011;2209;48.982;8.406;2023-10-09T05:21:20;11.20;;;5.90;;
4389;SDS011;2209;48.982;8.406;2023-10-09T05:24:05;13.13;;;5.97;;
4389;SDS011;2209;48.982;8.406;2023-10-09T05:26:44;13.87;;;6.33;;
4389;SDS011;2209;48.982;8.406;2023-10-09T05:29:12;15.80;;;6.27;;
4389;SDS011;2209;48.982;8.406;2023-10-09T05:31:40;21.80;;;6.63;;
4389;SDS011;2209;48.982;8.406;2023-10-09T05:34:17;19.73;;;6.40;;
4389;SDS011;2209;48.982;8.406;2023-10-09T05:36:40;18.90;;;6.83;;
4389;SDS011;2209;48.982;8.406;2023-10-09T05:39:08;12.10;;;6.97;;
4389;SDS011;2209;48.982;8.406;2023-10-09T05:41:43;16.03;;;7.37;;
4389;SDS011;2209;48.982;8.406;2023-10-09T05:44:14;12.27;;;5.00;;
4389;SDS011;2209;48.982;8.406;2023-10-09T05:46:53;18.60;;;6.80;;
4389;SDS011;2209;48.982;8.406;2023-10-09T05:49:43;13.50;;;5.80;;
4389;SDS011;2209;48.982;8.406;2023-10-09T05:52:07;26.67;;;6.30;;
4389;SDS011;2209;48.982;8.406;2023-10-09T05:54:52;14.97;;;6.33;;
4389;SDS011;2209;48.982;8.406;2023-10-09T05:57:32;19.60;;;6.97;;
4389;SDS011;2209;48.982;8.406;2023-10-09T06:03:39;16.53;;;6.23;;
4389;SDS011;2209;48.982;8.406;2023-10-09T06:06:14;15.00;;;6.00;;
4389;SDS011;2209;48.982;8.406;2023-10-09T06:08:53;24.53;;;7.20;;
4389;SDS011;2209;48.982;8.406;2023-10-09T06:11:33;18.70;;;6.53;;
4389;SDS011;2209;48.982;8.406;2023-10-09T06:14:09;31.53;;;5.60;;
4389;SDS011;2209;48.982;8.406;2023-10-09T06:16:33;17.80;;;7.10;;
4389;SDS011;2209;48.982;8.406;2023-10-09T06:19:04;12.97;;;5.93;;
4389;SDS011;2209;48.982;8.406;2023-10-09T06:24:57;17.60;;;6.77;;
4389;SDS011;2209;48.982;8.406;2023-10-09T06:27:29;15.10;;;5.77;;
4389;SDS011;2209;48.982;8.406;2023-10-09T06:30:17;19.10;;;6.80;;
4389;SDS011;2209;48.982;8.406;2023-10-09T06:32:47;22.37;;;6.37;;
4389;SDS011;2209;48.982;8.406;2023-10-09T06:35:20;18.83;;;6.07;;
4389;SDS011;2209;48.982;8.406;2023-10-09T06:37:51;17.00;;;6.67;;
4389;SDS011;2209;48.982;8.406;2023-10-09T06:40:35;14.20;;;5.73;;
4389;SDS011;2209;48.982;8.406;2023-10-09T06:43:16;14.23;;;5.70;;
4389;SDS011;2209;48.982;8.406;2023-10-09T06:45:47;17.37;;;5.20;;
4389;SDS011;2209;48.982;8.406;2023-10-09T06:48:15;17.80;;;6.07;;
4389;SDS011;2209;48.982;8.406;2023-10-09T06:50:53;15.50;;;5.23;;
4389;SDS011;2209;48.982;8.406;2023-10-09T06:53:24;11.93;;;5.30;;
4389;SDS011;2209;48.982;8.406;2023-10-09T06:55:48;14.67;;;5.37;;
4389;SDS011;2209;48.982;8.406;2023-10-09T06:58:11;14.90;;;6.37;;
4389;SDS011;2209;48.982;8.406;2023-10-09T07:00:37;11.03;;;6.10;;
4389;SDS011;2209;48.982;8.406;2023-10-09T07:03:17;18.93;;;6.30;;
4389;SDS011;2209;48.982;8.406;2023-10-09T07:05:50;14.73;;;6.03;;
4389;SDS011;2209;48.982;8.406;2023-10-09T07:08:26;14.63;;;6.70;;
4389;SDS011;2209;48.982;8.406;2023-10-09T07:10:52;13.13;;;5.90;;
4389;SDS011;2209;48.982;8.406;2023-10-09T07:13:34;14.40;;;5.90;;
4389;SDS011;2209;48.982;8.406;2023-10-09T07:15:57;13.80;;;5.57;;
4389;SDS011;2209;48.982;8.406;2023-10-09T07:18:37;22.43;;;6.63;;
4389;SDS011;2209;48.982;8.406;2023-10-09T07:21:12;12.70;;;6.13;;
4389;SDS011;2209;48.982;8.406;2023-10-09T07:23:39;14.90;;;6.53;;
4389;SDS011;2209;48.982;8.406;2023-10-09T07:26:08;11.77;;;5.50;;
4389;SDS011;2209;48.982;8.406;2023-10-09T07:28:43;13.80;;;5.30;;
4389;SDS011;2209;48.982;8.406;2023-10-09T07:31:16;15.53;;;5.13;;
4389;SDS011;2209;48.982;8.406;2023-10-09T07:33:44;12.17;;;5.30;;
4389;SDS011;2209;48.982;8.406;2023-10-09T07:36:18;18.93;;;5.50;;
4389;SDS011;2209;48.982;8.406;2023-10-09T07:38:58;14.63;;;6.57;;
4389;SDS011;2209;48.982;8.406;2023-10-09T07:41:22;17.30;;;7.00;;
4389;SDS011;2209;48.982;8.406;2023-10-09T07:43:58;8.97;;;5.10;;
4389;SDS011;2209;48.982;8.406;2023-10-09T07:46:39;11.20;;;4.87;;
4389;SDS011;2209;48.982;8.406;2023-10-09T07:49:12;15.93;;;4.70;;
4389;SDS011;2209;48.982;8.406;2023-10-09T07:51:34;14.90;;;6.23;;
4389;SDS011;2209;48.982;8.406;2023-10-09T07:53:59;15.00;;;5.80;;
4389;SDS011;2209;48.982;8.406;2023-10-09T07:56:27;12.57;;;5.57;;
4389;SDS011;2209;48.982;8.406;2023-10-09T07:58:58;16.13;;;6.23;;
4389;SDS011;2209;48.982;8.406;2023-10-09T08:01:20;12.50;;;5.40;;
4389;SDS011;2209;48.982;8.406;2023-10-09T08:03:55;13.90;;;5.00;;
4389;SDS011;2209;48.982;8.406;2023-10-09T08:06:25;18.97;;;6.13;;
4389;SDS011;2209;48.982;8.406;2023-10-09T08:09:00;12.73;;;5.70;;
4389;SDS011;2209;48.982;8.406;2023-10-09T08:11:59;17.97;;;6.10;;
4389;SDS011;2209;48.982;8.406;2023-10-09T08:14:34;18.23;;;5.90;;
4389;SDS011;2209;48.982;8.406;2023-10-09T08:17:06;16.00;;;5.80;;
4389;SDS011;2209;48.982;8.406;2023-10-09T08:19:36;14.57;;;6.20;;
4389;SDS011;2209;48.982;8.406;2023-10-09T08:22:12;10.13;;;5.73;;
4389;SDS011;2209;48.982;8.406;2023-10-09T08:24:55;16.17;;;5.90;;
4389;SDS011;2209;48.982;8.406;2023-10-09T08:27:18;20.70;;;7.00;;
4389;SDS011;2209;48.982;8.406;2023-10-09T08:29:58;13.43;;;5.60;;
4389;SDS011;2209;48.982;8.406;2023-10-09T08:32:48;17.23;;;5.80;;
4389;SDS011;2209;48.982;8.406;2023-10-09T08:35:21;12.60;;;4.20;;
4389;SDS011;2209;48.982;8.406;2023-10-09T08:37:49;13.53;;;5.30;;
4389;SDS011;2209;48.982;8.406;2023-10-09T08:40:13;12.20;;;5.60;;
4389;SDS011;2209;48.982;8.406;2023-10-09T08:42:38;18.70;;;5.77;;
4389;SDS011;2209;48.982;8.406;2023-10-09T08:45:01;20.30;;;5.43;;
4389;SDS011;2209;48.982;8.406;2023-10-09T08:47:26;13.33;;;5.57;;
4389;SDS011;2209;48.982;8.406;2023-10-09T08:49:48;12.23;;;4.90;;
4389;SDS011;2209;48.982;8.406;2023-10-09T08:52:11;16.70;;;5.70;;
4389;SDS011;2209;48.982;8.406;2023-10-09T08:54:34;9.40;;;4.77;;
4389;SDS011;2209;48.982;8.406;2023-10-09T08:56:57;12.90;;;4.73;;
4389;SDS011;2209;48.982;8.406;2023-10-09T08:59:20;18.20;;;5.17;;
4389;SDS011;2209;48.982;8.406;2023-10-09T09:01:42;15.13;;;4.87;;
4389;SDS011;2209;48.982;8.406;2023-10-09T09:04:04;9.23;;;5.47;;
4389;SDS011;2209;48.982;8.406;2023-10-09T09:06:35;16.07;;;5.67;;
4389;SDS011;2209;48.982;8.406;2023-10-09T09:09:00;17.77;;;5.30;;
4389;SDS011;2209;48.982;8.406;2023-10-09T09:11:35;13.23;;;5.10;;
4389;SDS011;2209;48.982;8.406;2023-10-09T09:14:10;11.70;;;5.00;;
4389;SDS011;2209;48.982;8.406;2023-10-09T09:16:40;14.07;;;5.47;;
4389;SDS011;2209;48.982;8.406;2023-10-09T09:19:08;15.37;;;4.77;;
4389;SDS011;2209;48.982;8.406;2023-10-09T09:21:39;11.80;;;4.50;;
4389;SDS011;2209;48.982;8.406;2023-10-09T09:24:04;12.70;;;5.20;;
4389;SDS011;2209;48.982;8.406;2023-10-09T09:26:36;18.47;;;4.63;;
4389;SDS011;2209;48.982;8.406;2023-10-09T09:29:05;12.90;;;4.83;;
4389;SDS011;2209;48.982;8.406;2023-10-09T09:31:30;12.53;;;4.63;;
4389;SDS011;2209;48.982;8.406;2023-10-09T09:33:58;12.93;;;4.50;;
4389;SDS011;2209;48.982;8.406;2023-10-09T09:36:22;9.83;;;4.30;;
4389;SDS011;2209;48.982;8.406;2023-10-09T09:38:46;12.27;;;3.80;;
4389;SDS011;2209;48.982;8.406;2023-10-09T09:41:09;12.43;;;5.23;;
4389;SDS011;2209;48.982;8.406;2023-10-09T09:43:33;13.53;;;5.37;;
4389;SDS011;2209;48.982;8.406;2023-10-09T09:46:00;15.37;;;5.87;;
4389;SDS011;2209;48.982;8.406;2023-10-09T09:48:29;8.17;;;3.90;;
4389;SDS011;2209;48.982;8.406;2023-10-09T09:50:52;11.43;;;4.63;;
4389;SDS011;2209;48.982;8.406;2023-10-09T09:53:15;15.97;;;4.17;;
4389;SDS011;2209;48.982;8.406;2023-10-09T09:55:38;15.50;;;4.63;;
4389;SDS011;2209;48.982;8.406;2023-10-09T09:58:03;9.47;;;4.80;;
4389;SDS011;2209;48.982;8.406;2023-10-09T10:00:29;17.37;;;4.77;;
4389;SDS011;2209;48.982;8.406;2023-10-09T10:03:04;9.73;;;3.70;;
4389;SDS011;2209;48.982;8.406;2023-10-09T10:05:30;10.40;;;4.13;;
4389;SDS011;2209;48.982;8.406;2023-10-09T10:07:55;19.87;;;5.10;;
4389;SDS011;2209;48.982;8.406;2023-10-09T10:10:35;9.93;;;4.10;;
4389;SDS011;2209;48.982;8.406;2023-10-09T10:12:59;12.97;;;4.37;;
4389;SDS011;2209;48.982;8.406;2023-10-09T10:15:21;12.40;;;4.83;;
4389;SDS011;2209;48.982;8.406;2023-10-09T10:18:06;17.73;;;6.40;;
4389;SDS011;2209;48.982;8.406;2023-10-09T10:20:31;9.83;;;3.80;;
4389;SDS011;2209;48.982;8.406;2023-10-09T10:25:41;15.47;;;5.27;;
4389;SDS011;2209;48.982;8.406;2023-10-09T10:28:18;11.93;;;3.83;;
4389;SDS011;2209;48.982;8.406;2023-10-09T10:30:59;16.33;;;4.27;;
4389;SDS011;2209;48.982;8.406;2023-10-09T10:33:21;9.03;;;4.10;;
4389;SDS011;2209;48.982;8.406;2023-10-09T10:35:46;20.90;;;4.03;;
4389;SDS011;2209;48.982;8.406;2023-10-09T10:38:26;12.33;;;3.77;;
4389;SDS011;2209;48.982;8.406;2023-10-09T10:40:56;14.73;;;6.70;;
4389;SDS011;2209;48.982;8.406;2023-10-09T10:43:34;10.37;;;3.90;;
4389;SDS011;2209;48.982;8.406;2023-10-09T10:46:18;14.80;;;3.40;;
4389;SDS011;2209;48.982;8.406;2023-10-09T10:48:50;18.93;;;3.53;;
4389;SDS011;2209;48.982;8.406;2023-10-09T10:51:20;8.80;;;4.00;;
4389;SDS011;2209;48.982;8.406;2023-10-09T10:53:50;11.67;;;3.83;;
4389;SDS011;2209;48.982;8.406;2023-10-09T10:56:18;12.93;;;4.70;;
4389;SDS011;2209;48.982;8.406;2023-10-09T10:58:39;11.13;;;4.13;;
4389;SDS011;2209;48.982;8.406;2023-10-09T11:01:08;10.40;;;3.90;;
4389;SDS011;2209;48.982;8.406;2023-10-09T11:03:35;16.97;;;3.70;;
4389;SDS011;2209;48.982;8.406;2023-10-09T11:06:15;8.33;;;4.10;;
4389;SDS011;2209;48.982;8.406;2023-10-09T11:08:58;10.97;;;3.63;;
4389;SDS011;2209;48.982;8.406;2023-10-09T11:11:29;15.10;;;3.83;;
4389;SDS011;2209;48.982;8.406;2023-10-09T11:14:07;10.90;;;3.50;;
4389;SDS011;2209;48.982;8.406;2023-10-09T11:16:36;11.77;;;3.90;;
4389;SDS011;2209;48.982;8.406;2023-10-09T11:19:04;9.27;;;4.10;;
4389;SDS011;2209;48.982;8.406;2023-10-09T11:21:35;12.47;;;4.23;;
4389;SDS011;2209;48.982;8.406;2023-10-09T11:24:01;13.60;;;4.30;;
4389;SDS011;2209;48.982;8.406;2023-10-09T11:26:38;18.23;;;3.80;;
4389;SDS011;2209;48.982;8.406;2023-10-09T11:29:08;10.97;;;4.17;;
4389;SDS011;2209;48.982;8.406;2023-10-09T11:31:34;31.57;;;4.80;;
4389;SDS011;2209;48.982;8.406;2023-10-09T11:33:58;17.17;;;6.13;;
4389;SDS011;2209;48.982;8.406;2023-10-09T11:36:21;14.10;;;4.10;;
4389;SDS011;2209;48.982;8.406;2023-10-09T11:38:53;18.70;;;4.53;;
4389;SDS011;2209;48.982;8.406;2023-10-09T11:41:33;7.00;;;4.83;;
4389;SDS011;2209;48.982;8.406;2023-10-09T11:44:01;12.03;;;4.23;;
4389;SDS011;2209;48.982;8.406;2023-10-09T11:46:25;18.80;;;4.77;;
4389;SDS011;2209;48.982;8.406;2023-10-09T11:49:09;15.27;;;4.27;;
4389;SDS011;2209;48.982;8.406;2023-10-09T11:52:05;20.47;;;5.13;;
4389;SDS011;2209;48.982;8.406;2023-10-09T11:54:56;15.97;;;4.93;;
4389;SDS011;2209;48.982;8.406;2023-10-09T11:57:19;17.00;;;5.83;;
4389;SDS011;2209;48.982;8.406;2023-10-09T11:59:49;14.33;;;4.13;;
4389;SDS011;2209;48.982;8.406;2023-10-09T12:02:12;18.20;;;4.80;;
4389;SDS011;2209;48.982;8.406;2023-10-09T12:04:34;17.03;;;4.43;;
4389;SDS011;2209;48.982;8.406;2023-10-09T12:06:56;16.93;;;5.23;;
4389;SDS011;2209;48.982;8.406;2023-10-09T12:09:26;16.07;;;4.30;;
4389;SDS011;2209;48.982;8.406;2023-10-09T12:11:51;13.53;;;4.00;;
4389;SDS011;2209;48.982;8.406;2023-10-09T12:14:13;15.23;;;4.27;;
4389;SDS011;2209;48.982;8.406;2023-10-09T12:16:35;15.27;;;4.13;;
4389;SDS011;2209;48.982;8.406;2023-10-09T12:19:01;12.60;;;4.00;;
4389;SDS011;2209;48.982;8.406;2023-10-09T12:21:23;17.53;;;4.27;;
4389;SDS011;2209;48.982;8.406;2023-10-09T12:23:48;18.63;;;4.53;;
4389;SDS011;2209;48.982;8.406;2023-10-09T12:26:10;18.17;;;4.33;;
4389;SDS011;2209;48.982;8.406;2023-10-09T12:28:36;11.50;;;4.00;;
4389;SDS011;2209;48.982;8.406;2023-10-09T12:30:58;8.27;;;3.97;;
4389;SDS011;2209;48.982;8.406;2023-10-09T12:33:21;12.37;;;3.93;;
4389;SDS011;2209;48.982;8.406;2023-10-09T12:35:48;11.17;;;4.00;;
4389;SDS011;2209;48.982;8.406;2023-10-09T12:38:10;16.07;;;4.70;;
4389;SDS011;2209;48.982;8.406;2023-10-09T12:40:32;22.13;;;4.13;;
4389;SDS011;2209;48.982;8.406;2023-10-09T12:42:54;10.97;;;4.47;;
4389;SDS011;2209;48.982;8.406;2023-10-09T12:45:20;19.77;;;4.80;;
4389;SDS011;2209;48.982;8.406;2023-10-09T12:47:46;11.23;;;4.00;;
4389;SDS011;2209;48.982;8.406;2023-10-09T12:50:08;12.77;;;4.20;;
4389;SDS011;2209;48.982;8.406;2023-10-09T12:52:34;17.87;;;4.10;;
4389;SDS011;2209;48.982;8.406;2023-10-09T12:54:57;11.73;;;4.27;;
4389;SDS011;2209;48.982;8.406;2023-10-09T12:57:19;22.37;;;4.17;;
4389;SDS011;2209;48.982;8.406;2023-10-09T12:59:41;12.83;;;4.17;;
4389;SDS011;2209;48.982;8.406;2023-10-09T13:02:07;8.50;;;3.40;;
4389;SDS011;2209;48.982;8.406;2023-10-09T13:04:31;14.27;;;3.43;;
4389;SDS011;2209;48.982;8.406;2023-10-09T13:06:55;32.43;;;4.13;;
4389;SDS011;2209;48.982;8.406;2023-10-09T13:09:22;9.90;;;3.50;;
4389;SDS011;2209;48.982;8.406;2023-10-09T13:11:54;13.07;;;3.57;;
4389;SDS011;2209;48.982;8.406;2023-10-09T13:14:20;14.03;;;4.47;;
4389;SDS011;2209;48.982;8.406;2023-10-09T13:16:42;12.10;;;3.80;;
4389;SDS011;2209;48.982;8.406;2023-10-09T13:19:07;20.73;;;4.53;;
4389;SDS011;2209;48.982;8.406;2023-10-09T13:21:30;18.37;;;4.70;;
4389;SDS011;2209;48.982;8.406;2023-10-09T13:23:52;21.43;;;3.93;;
4389;SDS011;2209;48.982;8.406;2023-10-09T13:26:15;29.43;;;4.03;;
4389;SDS011;2209;48.982;8.406;2023-10-09T13:28:45;14.07;;;4.53;;
4389;SDS011;2209;48.982;8.406;2023-10-09T13:31:07;11.00;;;4.17;;
4389;SDS011;2209;48.982;8.406;2023-10-09T13:33:31;20.20;;;4.90;;
4389;SDS011;2209;48.982;8.406;2023-10-09T13:35:58;17.50;;;4.97;;
4389;SDS011;2209;48.982;8.406;2023-10-09T13:38:20;15.43;;;4.13;;
4389;SDS011;2209;48.982;8.406;2023-10-09T13:40:42;16.33;;;4.97;;
4389;SDS011;2209;48.982;8.406;2023-10-09T13:43:04;22.80;;;4.37;;
4389;SDS011;2209;48.982;8.406;2023-10-09T13:45:27;11.80;;;3.00;;
4389;SDS011;2209;48.982;8.406;2023-10-09T13:47:49;11.70;;;4.13;;
4389;SDS011;2209;48.982;8.406;2023-10-09T13:50:12;10.07;;;5.00;;
4389;SDS011;2209;48.982;8.406;2023-10-09T13:52:35;13.13;;;5.13;;
4389;SDS011;2209;48.982;8.406;2023-10-09T13:54:59;12.77;;;4.73;;
4389;SDS011;2209;48.982;8.406;2023-10-09T13:57:35;12.10;;;4.30;;
4389;SDS011;2209;48.982;8.406;2023-10-09T13:59:57;16.80;;;4.07;;
4389;SDS011;2209;48.982;8.406;2023-10-09T14:02:20;11.17;;;4.40;;
4389;SDS011;2209;48.982;8.406;2023-10-09T14:04:42;12.00;;;4.30;;
4389;SDS011;2209;48.982;8.406;2023-10-09T14:07:05;20.17;;;4.80;;
4389;SDS011;2209;48.982;8.406;2023-10-09T14:09:28;17.10;;;5.00;;
4389;SDS011;2209;48.982;8.406;2023-10-09T14:11:51;26.73;;;6.80;;
4389;SDS011;2209;48.982;8.406;2023-10-09T14:14:13;17.53;;;5.30;;
4389;SDS011;2209;48.982;8.406;2023-10-09T14:16:36;18.80;;;4.37;;
4389;SDS011;2209;48.982;8.406;2023-10-09T14:19:03;13.10;;;5.77;;
4389;SDS011;2209;48.982;8.406;2023-10-09T14:21:27;21.53;;;5.37;;
4389;SDS011;2209;48.982;8.406;2023-10-09T14:23:50;24.77;;;5.73;;
4389;SDS011;2209;48.982;8.406;2023-10-09T14:26:16;22.67;;;5.40;;
4389;SDS011;2209;48.982;8.406;2023-10-09T14:28:39;24.93;;;5.90;;
4389;SDS011;2209;48.982;8.406;2023-10-09T14:31:03;24.80;;;4.83;;
4389;SDS011;2209;48.982;8.406;2023-10-09T14:33:31;14.93;;;5.37;;
4389;SDS011;2209;48.982;8.406;2023-10-09T14:35:56;16.57;;;6.10;;
4389;SDS011;2209;48.982;8.406;2023-10-09T14:38:18;15.90;;;5.33;;
4389;SDS011;2209;48.982;8.406;2023-10-09T14:40:47;12.07;;;4.63;;
4389;SDS011;2209;48.982;8.406;2023-10-09T14:43:11;16.73;;;5.13;;
4389;SDS011;2209;48.982;8.406;2023-10-09T14:45:40;15.53;;;5.07;;
4389;SDS011;2209;48.982;8.406;2023-10-09T14:48:03;15.53;;;4.90;;
4389;SDS011;2209;48.982;8.406;2023-10-09T14:50:26;15.87;;;3.97;;
4389;SDS011;2209;48.982;8.406;2023-10-09T14:52:48;23.07;;;5.47;;
4389;SDS011;2209;48.982;8.406;2023-10-09T14:55:11;17.87;;;5.10;;
4389;SDS011;2209;48.982;8.406;2023-10-09T14:57:33;22.50;;;4.50;;
4389;SDS011;2209;48.982;8.406;2023-10-09T14:59:56;14.30;;;4.50;;
4389;SDS011;2209;48.982;8.406;2023-10-09T15:02:19;19.03;;;5.47;;
4389;SDS011;2209;48.982;8.406;2023-10-09T15:04:44;23.40;;;6.13;;
4389;SDS011;2209;48.982;8.406;2023-10-09T15:07:06;20.93;;;5.57;;
4389;SDS011;2209;48.982;8.406;2023-10-09T15:09:28;20.43;;;5.73;;
4389;SDS011;2209;48.982;8.406;2023-10-09T15:11:51;16.57;;;4.93;;
4389;SDS011;2209;48.982;8.406;2023-10-09T15:14:13;17.90;;;5.33;;
4389;SDS011;2209;48.982;8.406;2023-10-09T15:16:37;18.67;;;4.70;;
4389;SDS011;2209;48.982;8.406;2023-10-09T15:18:59;14.80;;;4.37;;